createdAt,value
2019-05-14T04:02:05.875Z,28.125
2019-05-14T04:05:35.968Z,28.125
2019-05-14T04:09:09.239Z,33.75
2019-05-14T04:12:36.215Z,33.75
2019-05-14T04:16:09.066Z,33.75
2019-05-14T04:19:39.359Z,33.75
2019-05-14T04:23:09.407Z,39.375
2019-05-14T04:26:56.106Z,39.375
2019-05-14T04:30:14.062Z,39.375
2019-05-14T04:33:44.280Z,39.375
2019-05-14T04:37:14.734Z,39.375
2019-05-14T04:40:44.895Z,45
2019-05-14T04:44:18.813Z,45
2019-05-14T04:47:49.464Z,45
2019-05-14T04:51:19.822Z,45
2019-05-14T04:54:49.891Z,45
2019-05-14T04:58:21.427Z,45
2019-05-14T05:01:49.445Z,50.625
2019-05-14T05:05:21.917Z,50.625
2019-05-14T05:08:53.068Z,50.625
2019-05-14T05:12:24.242Z,50.625
2019-05-14T05:15:54.456Z,50.625
2019-05-14T05:19:24.852Z,50.625
2019-05-14T05:22:55.002Z,50.625
2019-05-14T05:26:25.251Z,50.625
2019-05-14T05:29:55.387Z,56.25
2019-05-14T05:33:25.551Z,56.25
2019-05-14T05:36:55.951Z,56.25
2019-05-14T05:40:28.580Z,56.25
2019-05-14T05:43:58.611Z,56.25
2019-05-14T05:47:28.524Z,56.25
2019-05-14T05:50:58.828Z,56.25
2019-05-14T05:54:29.157Z,56.25
2019-05-14T05:57:58.758Z,61.875
2019-05-14T06:01:42.717Z,61.875
2019-05-14T06:05:03.688Z,61.875
2019-05-14T06:08:33.970Z,61.875
2019-05-14T06:12:04.140Z,61.875
2019-05-14T06:15:45.304Z,61.875
2019-05-14T06:19:10.411Z,61.875
2019-05-14T06:22:41.906Z,61.875
2019-05-14T06:26:13.931Z,61.875
2019-05-14T06:29:45.293Z,67.5
2019-05-14T06:33:15.404Z,67.5
2019-05-14T06:36:45.580Z,67.5
2019-05-14T06:40:19.335Z,67.5
2019-05-14T06:43:49.863Z,67.5
2019-05-14T06:47:21.052Z,67.5
2019-05-14T06:50:52.233Z,67.5
2019-05-14T06:54:24.013Z,73.125
2019-05-14T06:57:55.156Z,73.125
2019-05-14T07:01:25.295Z,73.125
2019-05-14T07:04:55.526Z,73.125
2019-05-14T07:08:28.251Z,78.75
2019-05-14T07:11:58.298Z,73.125
2019-05-14T07:15:26.099Z,73.125
2019-05-14T07:18:59.043Z,73.125
2019-05-14T07:22:29.265Z,78.75
2019-05-14T07:26:00.860Z,78.75
2019-05-14T07:29:31.828Z,78.75
2019-05-14T07:33:03.022Z,78.75
2019-05-14T07:36:33.192Z,78.75
2019-05-14T07:40:03.392Z,84.375
2019-05-14T07:43:33.677Z,84.375
2019-05-14T07:47:03.903Z,84.375
2019-05-14T07:50:33.980Z,84.375
2019-05-14T07:54:04.118Z,90
2019-05-14T07:57:34.188Z,90
2019-05-14T08:01:04.233Z,90
2019-05-14T08:04:34.371Z,90
2019-05-14T08:08:07.999Z,95.625
2019-05-14T08:11:38.707Z,95.625
2019-05-14T08:15:17.580Z,95.625
2019-05-14T08:18:43.694Z,101.25
2019-05-14T08:22:13.929Z,101.25
2019-05-14T08:25:44.060Z,101.25
2019-05-14T08:29:14.280Z,106.875
2019-05-14T08:32:44.637Z,106.875
2019-05-14T08:36:14.743Z,106.875
2019-05-14T08:39:44.818Z,112.5
2019-05-14T08:43:14.900Z,112.5
2019-05-14T08:46:48.597Z,118.125
2019-05-14T08:50:18.995Z,123.75
2019-05-14T08:53:51.050Z,118.125
2019-05-14T08:57:22.168Z,129.375
2019-05-14T09:00:52.170Z,191.25
2019-05-14T09:04:24.466Z,151.875
2019-05-14T09:07:57.804Z,230.625
2019-05-14T09:11:35.270Z,191.25
2019-05-14T09:15:01.711Z,433.125
2019-05-14T09:18:32.962Z,281.25
2019-05-14T09:22:03.040Z,1158.75
2019-05-14T09:25:33.104Z,1248.75
2019-05-14T09:29:18.100Z,1288.125
2019-05-14T09:32:38.757Z,320.625
2019-05-14T09:36:18.839Z,4269.375
2019-05-14T09:39:42.440Z,360
2019-05-14T09:43:13.459Z,4505.625
2019-05-14T09:46:43.480Z,551.25
2019-05-14T09:50:22.152Z,151.875
2019-05-14T09:53:50.109Z,4893.75
2019-05-14T09:57:21.121Z,208.125
2019-05-14T10:00:52.164Z,2356.875
2019-05-14T10:04:22.486Z,680.625
2019-05-14T10:07:53.434Z,326.25
2019-05-14T10:11:23.455Z,219.375
2019-05-14T10:14:53.443Z,877.5
2019-05-14T10:18:24.450Z,5298.75
2019-05-14T10:21:54.581Z,2705.625
2019-05-14T10:25:24.548Z,2801.25
2019-05-14T10:28:54.526Z,3414.375
2019-05-14T10:32:24.577Z,3279.375
2019-05-14T10:35:54.538Z,3526.875
2019-05-14T10:39:24.679Z,2941.875
2019-05-14T10:42:55.640Z,444.375
2019-05-14T10:46:25.608Z,320.625
2019-05-14T10:49:55.580Z,360
2019-05-14T10:53:28.633Z,331.875
2019-05-14T10:56:58.760Z,815.625
2019-05-14T11:00:28.222Z,1153.125
2019-05-14T11:03:55.706Z,1175.625
2019-05-14T11:07:25.716Z,1175.625
2019-05-14T11:11:03.556Z,1366.875
2019-05-14T11:14:32.912Z,1614.375
2019-05-14T11:18:03.903Z,1653.75
2019-05-14T11:21:33.879Z,1833.75
2019-05-14T11:25:04.849Z,2013.75
2019-05-14T11:28:34.995Z,1777.5
2019-05-14T11:32:04.994Z,2143.125
2019-05-14T11:35:34.964Z,2362.5
2019-05-14T11:39:09.268Z,2295
2019-05-14T11:42:38.772Z,2193.75
2019-05-14T11:46:08.845Z,2317.5
2019-05-14T11:49:38.553Z,2131.875
2019-05-14T11:53:09.570Z,2328.75
2019-05-14T11:56:42.529Z,2401.875
2019-05-14T12:00:13.655Z,2536.875
2019-05-14T12:03:43.655Z,2536.875
2019-05-14T12:07:13.652Z,2463.75
2019-05-14T12:10:43.627Z,2626.875
2019-05-14T12:14:13.609Z,2514.375
2019-05-14T12:17:43.825Z,860.625
2019-05-14T12:21:13.796Z,270
2019-05-14T12:24:43.820Z,298.125
2019-05-14T12:28:15.816Z,393.75
2019-05-14T12:31:45.789Z,309.375
2019-05-14T12:35:16.035Z,1507.5
2019-05-14T12:38:46.039Z,343.125
2019-05-14T12:42:19.032Z,376.875
2019-05-14T12:45:45.999Z,669.375
2019-05-14T12:49:18.417Z,495
2019-05-14T12:52:48.247Z,230.625
2019-05-14T12:56:18.550Z,326.25
2019-05-14T12:59:46.077Z,444.375
2019-05-14T13:03:16.050Z,303.75
2019-05-14T13:06:48.181Z,303.75
2019-05-14T13:10:18.582Z,478.125
2019-05-14T13:13:48.971Z,511.875
2019-05-14T13:17:19.128Z,483.75
2019-05-14T13:20:50.128Z,208.125
2019-05-14T13:24:21.850Z,168.75
2019-05-14T13:27:51.788Z,393.75
2019-05-14T13:31:22.760Z,500.625
2019-05-14T13:34:52.752Z,438.75
2019-05-14T13:38:22.733Z,213.75
2019-05-14T13:41:53.851Z,208.125
2019-05-14T13:45:23.888Z,298.125
2019-05-14T13:48:53.930Z,281.25
2019-05-14T13:52:23.941Z,253.125
2019-05-14T13:55:58.119Z,253.125
2019-05-14T13:59:29.304Z,281.25
2019-05-14T14:03:00.352Z,275.625
2019-05-14T14:06:30.431Z,247.5
2019-05-14T14:10:01.465Z,241.875
2019-05-14T14:13:33.561Z,230.625
2019-05-14T14:17:04.579Z,225
2019-05-14T14:20:03.903Z,230.625
2019-05-14T14:23:35.877Z,219.375
2019-05-14T14:27:05.907Z,219.375
2019-05-14T14:30:35.947Z,208.125
2019-05-14T14:34:08.809Z,208.125
2019-05-14T14:37:36.104Z,202.5
2019-05-14T14:41:09.956Z,196.875
2019-05-14T14:44:39.263Z,196.875
2019-05-14T14:48:12.008Z,196.875
2019-05-14T14:51:44.950Z,191.25
2019-05-14T14:55:13.701Z,185.625
2019-05-14T14:58:43.734Z,118.125
2019-05-14T15:02:14.787Z,191.25
2019-05-14T15:05:44.803Z,191.25
2019-05-14T15:09:14.815Z,191.25
2019-05-14T15:12:44.944Z,196.875
2019-05-14T15:16:19.677Z,196.875
2019-05-14T15:19:49.713Z,202.5
2019-05-14T15:23:19.320Z,202.5
2019-05-14T15:26:47.166Z,202.5
2019-05-14T15:30:17.325Z,202.5
2019-05-14T15:33:50.737Z,202.5
2019-05-14T15:37:19.384Z,202.5
2019-05-14T15:40:50.402Z,202.5
2019-05-14T15:44:21.415Z,196.875
2019-05-14T15:47:52.559Z,196.875
2019-05-14T15:51:23.625Z,196.875
2019-05-14T15:54:54.597Z,202.5
2019-05-14T15:58:25.635Z,202.5
2019-05-14T16:01:55.780Z,208.125
2019-05-14T16:05:27.847Z,208.125
2019-05-14T16:08:55.862Z,208.125
2019-05-14T16:12:28.650Z,213.75
2019-05-14T16:15:55.967Z,208.125
2019-05-14T16:19:28.252Z,208.125
2019-05-14T16:22:58.805Z,225
2019-05-14T16:26:26.045Z,230.625
2019-05-14T16:29:58.438Z,236.25
2019-05-14T16:33:28.798Z,253.125
2019-05-14T16:36:58.669Z,292.5
2019-05-14T16:40:29.666Z,253.125
2019-05-14T16:44:00.664Z,253.125
2019-05-14T16:47:31.660Z,253.125
2019-05-14T16:51:02.815Z,241.875
2019-05-14T16:54:33.782Z,236.25
2019-05-14T16:58:03.776Z,241.875
2019-05-14T17:01:35.724Z,241.875
2019-05-14T17:05:05.698Z,241.875
2019-05-14T17:08:35.908Z,213.75
2019-05-14T17:12:08.323Z,163.125
2019-05-14T17:15:35.844Z,191.25
2019-05-14T17:19:05.865Z,163.125
2019-05-14T17:22:39.319Z,112.5
2019-05-14T17:26:08.816Z,118.125
2019-05-14T17:29:38.851Z,174.375
2019-05-14T17:33:09.444Z,174.375
2019-05-14T17:36:38.914Z,168.75
2019-05-14T17:40:09.499Z,135
2019-05-14T17:43:40.019Z,123.75
2019-05-14T17:47:10.058Z,135
2019-05-14T17:50:44.283Z,90
2019-05-14T17:54:12.004Z,67.5
2019-05-14T17:57:50.122Z,61.875
2019-05-14T18:01:18.402Z,67.5
2019-05-14T18:04:49.084Z,56.25
2019-05-14T18:08:20.052Z,61.875
2019-05-14T18:11:51.008Z,50.625
2019-05-14T18:15:20.978Z,39.375
2019-05-14T18:18:51.938Z,33.75
2019-05-14T18:22:22.894Z,28.125
2019-05-14T18:26:04.585Z,28.125
2019-05-14T18:29:30.661Z,22.5
2019-05-14T18:33:01.619Z,22.5
2019-05-14T18:36:32.660Z,16.875
2019-05-14T18:40:02.651Z,16.875
2019-05-14T18:43:34.202Z,11.25
2019-05-14T18:47:04.157Z,11.25
2019-05-14T18:50:34.148Z,11.25
2019-05-14T18:54:04.129Z,5.625
2019-05-14T18:57:34.139Z,5.625
2019-05-14T19:01:05.167Z,5.625
2019-05-14T19:04:35.136Z,0
2019-05-14T19:08:05.093Z,0
2019-05-14T19:11:35.058Z,0
2019-05-14T19:15:05.044Z,0
2019-05-14T19:18:35.149Z,0
2019-05-14T19:22:05.109Z,0
2019-05-14T19:25:35.077Z,0
2019-05-14T19:29:05.051Z,0
2019-05-14T19:32:36.012Z,0
2019-05-14T19:36:08.581Z,0
2019-05-14T19:39:38.358Z,0
2019-05-14T19:43:06.341Z,0
2019-05-14T19:46:38.519Z,0
2019-05-14T19:50:06.368Z,0
2019-05-14T19:53:36.329Z,0
2019-05-14T19:57:06.322Z,0
2019-05-14T20:00:38.375Z,0
2019-05-14T20:04:09.624Z,0
2019-05-14T20:07:42.001Z,0
2019-05-14T20:11:11.868Z,0
2019-05-14T20:14:41.818Z,0
2019-05-14T20:18:12.779Z,0
2019-05-14T20:21:43.737Z,0
2019-05-14T20:25:28.031Z,0
2019-05-14T20:28:59.014Z,0
2019-05-14T20:32:28.478Z,0
2019-05-14T20:35:59.440Z,0
2019-05-14T20:39:38.989Z,0
2019-05-14T20:43:06.901Z,0
2019-05-14T20:46:38.352Z,0
2019-05-14T20:50:09.130Z,0
2019-05-14T20:53:39.939Z,0
2019-05-14T20:57:24.042Z,0
2019-05-14T21:00:48.277Z,0
2019-05-14T21:04:15.746Z,0
2019-05-14T21:07:45.857Z,0
2019-05-14T21:11:18.858Z,0
2019-05-14T21:14:49.737Z,0
2019-05-14T21:18:34.329Z,0
2019-05-14T21:21:53.714Z,0
2019-05-14T21:25:24.754Z,0
2019-05-14T21:28:54.702Z,0
2019-05-14T21:32:24.664Z,0
2019-05-14T21:35:54.621Z,0
2019-05-14T21:39:24.690Z,0
2019-05-14T21:42:55.651Z,0
2019-05-14T21:46:25.618Z,0
2019-05-14T21:49:55.587Z,0
2019-05-14T21:53:25.539Z,0
2019-05-14T21:56:55.625Z,0
